createdAt,value
2022-09-01T00:00:01.033Z,2.1
2022-09-01T00:01:08.601Z,1.8
2022-09-01T00:02:18.301Z,2
2022-09-01T00:03:27.918Z,1.7
2022-09-01T00:04:36.649Z,2
2022-09-01T00:05:46.269Z,1.8
2022-09-01T00:06:55.937Z,1.9
2022-09-01T00:08:04.650Z,1.9
2022-09-01T00:09:14.317Z,2
2022-09-01T00:10:21.971Z,1.8
2022-09-01T00:11:30.634Z,2.1
2022-09-01T00:12:40.317Z,2.1
2022-09-01T00:13:49.975Z,1.9
2022-09-01T00:14:59.658Z,1.7
2022-09-01T00:16:08.358Z,1.5
2022-09-01T00:17:16.973Z,1.4
2022-09-01T00:18:26.647Z,2.2
2022-09-01T00:19:35.315Z,2
2022-09-01T00:20:43.970Z,1.8
2022-09-01T00:21:53.623Z,2.1
2022-09-01T00:23:01.277Z,1.9
2022-09-01T00:24:11.070Z,2.1
2022-09-01T00:25:19.737Z,1.6
2022-09-01T00:26:28.405Z,1.4
2022-09-01T00:27:38.079Z,2.1
2022-09-01T00:28:45.725Z,2.1
2022-09-01T00:29:54.412Z,1.6
2022-09-01T00:31:04.098Z,1.6
2022-09-01T00:32:12.731Z,1.6
2022-09-01T00:33:22.388Z,1.5
2022-09-01T00:34:31.050Z,1.8
2022-09-01T00:35:39.702Z,1.8
2022-09-01T00:36:49.353Z,1.9
2022-09-01T00:37:58.009Z,1.8
2022-09-01T00:39:08.671Z,1.8
2022-09-01T00:40:19.418Z,1.7
2022-09-01T00:41:27.143Z,1.9
2022-09-01T00:42:35.818Z,1.8
2022-09-01T00:43:45.477Z,1.6
2022-09-01T00:44:53.165Z,1.9
2022-09-01T00:46:02.842Z,2.2
2022-09-01T00:47:11.516Z,1.8
2022-09-01T00:48:21.297Z,1.9
2022-09-01T00:49:28.829Z,1.7
2022-09-01T00:50:38.467Z,1.4
2022-09-01T00:51:47.124Z,1.9
2022-09-01T00:52:55.845Z,2.2
2022-09-01T00:54:04.530Z,1.5
2022-09-01T00:55:14.188Z,1.3
2022-09-01T00:56:22.852Z,1.6
2022-09-01T00:57:31.514Z,1.9
2022-09-01T00:58:41.197Z,1.5
2022-09-01T00:59:50.875Z,1.8
2022-09-01T01:00:59.566Z,1.9
2022-09-01T01:02:07.222Z,1.6
2022-09-01T01:03:16.853Z,1.4
2022-09-01T01:04:24.512Z,2.1
2022-09-01T01:05:32.160Z,1.7
2022-09-01T01:06:41.833Z,1.6
2022-09-01T01:07:51.485Z,1.5
2022-09-01T01:09:01.157Z,2
2022-09-01T01:10:10.854Z,1.9
2022-09-01T01:11:18.505Z,2
2022-09-01T01:12:28.184Z,2.1
2022-09-01T01:13:36.827Z,1.8
2022-09-01T01:14:46.472Z,2.2
2022-09-01T01:15:56.157Z,1.5
2022-09-01T01:17:04.850Z,2.1
2022-09-01T01:18:13.464Z,1.6
2022-09-01T01:19:23.114Z,1.6
2022-09-01T01:20:32.783Z,1.6
2022-09-01T01:21:42.482Z,1.6
2022-09-01T01:22:51.147Z,1.7
2022-09-01T01:23:58.812Z,2
2022-09-01T01:25:08.488Z,1.9
2022-09-01T01:26:16.159Z,1.6
2022-09-01T01:27:25.949Z,1.5
2022-09-01T01:28:35.601Z,1.7
2022-09-01T01:29:43.254Z,1.6
2022-09-01T01:30:52.971Z,2
2022-09-01T01:32:01.588Z,1.5
2022-09-01T01:33:11.564Z,2.1
2022-09-01T01:34:20.960Z,2.1
2022-09-01T01:35:28.663Z,1.8
2022-09-01T01:36:38.336Z,1.6
2022-09-01T01:37:48.002Z,1.4
2022-09-01T01:38:56.691Z,1.5
2022-09-01T01:40:06.436Z,1.5
2022-09-01T01:41:14.018Z,2.3
2022-09-01T01:42:21.657Z,1.4
2022-09-01T01:43:31.320Z,1.5
2022-09-01T01:44:38.980Z,1.8
2022-09-01T01:45:47.680Z,1.9
2022-09-01T01:46:57.310Z,2
2022-09-01T01:48:05.015Z,1.6
2022-09-01T01:49:14.664Z,2.1
2022-09-01T01:50:23.374Z,1.7
2022-09-01T01:51:31.043Z,1.4
2022-09-01T01:52:40.683Z,2
2022-09-01T01:53:49.337Z,1.5
2022-09-01T01:55:00.129Z,1.9
2022-09-01T01:56:07.657Z,1.4
2022-09-01T01:57:16.331Z,1.8
2022-09-01T01:58:26.022Z,1.6
2022-09-01T01:59:34.671Z,1.9
2022-09-01T02:00:42.321Z,1.8
2022-09-01T02:01:52.066Z,1.4
2022-09-01T02:03:00.689Z,1.9
2022-09-01T02:04:09.339Z,2
2022-09-01T02:05:19.022Z,1.4
2022-09-01T02:06:27.675Z,1.9
2022-09-01T02:07:37.383Z,1.8
2022-09-01T02:08:46.029Z,1.8
2022-09-01T02:09:54.666Z,1.9
2022-09-01T02:11:04.321Z,1.8
2022-09-01T02:12:11.966Z,2.1
2022-09-01T02:13:21.632Z,1.7
2022-09-01T02:14:31.318Z,2.2
2022-09-01T02:15:39.964Z,1.9
2022-09-01T02:16:49.660Z,2
2022-09-01T02:17:58.271Z,1.8
2022-09-01T02:19:06.950Z,1.9
2022-09-01T02:20:16.647Z,1.8
2022-09-01T02:21:25.304Z,1.9
2022-09-01T02:22:33.961Z,1.8
2022-09-01T02:23:43.616Z,2.2
2022-09-01T02:24:52.285Z,1.8
2022-09-01T02:26:17.780Z,1.7
2022-09-01T02:27:11.578Z,2.1
2022-09-01T02:28:20.402Z,1.5
2022-09-01T02:29:27.868Z,1.8
2022-09-01T02:30:35.664Z,1.5
2022-09-01T02:31:44.295Z,1.4
2022-09-01T02:32:53.947Z,1.9
2022-09-01T02:34:02.633Z,1.9
2022-09-01T02:35:12.301Z,1.6
2022-09-01T02:36:21.011Z,1.8
2022-09-01T02:37:27.682Z,1.7
2022-09-01T02:38:37.344Z,1.9
2022-09-01T02:39:46.025Z,2.1
2022-09-01T02:40:54.687Z,1.6
2022-09-01T02:42:04.450Z,1.5
2022-09-01T02:43:13.122Z,1.6
2022-09-01T02:44:22.790Z,1.7
2022-09-01T02:45:31.543Z,1.7
2022-09-01T02:46:41.149Z,2.2
2022-09-01T02:47:50.907Z,1.8
2022-09-01T02:48:58.563Z,1.7
2022-09-01T02:50:08.217Z,2.2
2022-09-01T02:51:17.873Z,2
2022-09-01T02:52:26.526Z,1.8
2022-09-01T02:53:36.279Z,2.2
2022-09-01T02:54:45.952Z,1.7
2022-09-01T02:55:53.604Z,2
2022-09-01T02:57:03.269Z,2.1
2022-09-01T02:58:11.925Z,2.1
2022-09-01T02:59:21.587Z,2.2
2022-09-01T03:00:29.274Z,2.1
2022-09-01T03:01:38.034Z,1.5
2022-09-01T03:02:47.601Z,2.1
2022-09-01T03:03:57.269Z,1.7
2022-09-01T03:05:06.998Z,2.4
2022-09-01T03:06:15.599Z,1.8
2022-09-01T03:07:24.257Z,1.9
2022-09-01T03:08:33.933Z,2
2022-09-01T03:09:43.593Z,1.8
2022-09-01T03:10:52.287Z,2.2
2022-09-01T03:12:01.952Z,1.8
2022-09-01T03:13:09.614Z,1.9
2022-09-01T03:14:19.255Z,1.9
2022-09-01T03:15:26.917Z,2.1
2022-09-01T03:16:35.677Z,2.7
2022-09-01T03:17:45.251Z,1.9
2022-09-01T03:18:53.916Z,2.2
2022-09-01T03:20:02.577Z,1.7
2022-09-01T03:21:12.301Z,2.1
2022-09-01T03:22:20.978Z,2.3
2022-09-01T03:23:30.655Z,2.5
2022-09-01T03:24:40.307Z,1.8
2022-09-01T03:25:48.005Z,1.8
2022-09-01T03:26:57.678Z,2
2022-09-01T03:28:07.346Z,2.1
2022-09-01T03:29:17.022Z,2
2022-09-01T03:30:26.684Z,2
2022-09-01T03:31:35.470Z,2.1
2022-09-01T03:32:45.069Z,2.2
2022-09-01T03:33:54.871Z,2.1
2022-09-01T03:35:02.584Z,1.9
2022-09-01T03:36:14.808Z,1.7
2022-09-01T03:37:22.849Z,1.9
2022-09-01T03:38:31.503Z,1.5
2022-09-01T03:39:41.179Z,1.5
2022-09-01T03:40:48.867Z,1.5
2022-09-01T03:41:58.499Z,1.8
2022-09-01T03:43:06.148Z,1.5
2022-09-01T03:44:13.822Z,1.8
2022-09-01T03:45:23.734Z,1.7
2022-09-01T03:46:36.753Z,1.5
2022-09-01T03:47:42.913Z,1.5
2022-09-01T03:48:52.574Z,2
2022-09-01T03:50:01.246Z,1.8
2022-09-01T03:51:10.967Z,1.8
2022-09-01T03:52:19.630Z,1.6
2022-09-01T03:53:27.296Z,1.6
2022-09-01T03:54:36.954Z,1.7
2022-09-01T03:55:44.616Z,1.8
2022-09-01T03:56:53.296Z,1.8
2022-09-01T03:58:02.971Z,1.6
2022-09-01T03:59:12.615Z,1.6
2022-09-01T04:00:22.270Z,2.1
2022-09-01T04:01:30.968Z,1.7
2022-09-01T04:02:39.638Z,1.5
2022-09-01T04:03:50.255Z,1.7
2022-09-01T04:04:58.916Z,1.5
2022-09-01T04:06:07.568Z,1.7
2022-09-01T04:07:19.118Z,1.5
2022-09-01T04:08:26.005Z,1.6
2022-09-01T04:09:35.667Z,1.8
2022-09-01T04:10:45.321Z,1.6
2022-09-01T04:11:52.982Z,1.7
2022-09-01T04:13:02.635Z,1.8
2022-09-01T04:14:10.328Z,1.9
2022-09-01T04:15:19.010Z,1.7
2022-09-01T04:16:28.707Z,1.7
2022-09-01T04:17:36.321Z,1.8
2022-09-01T04:18:46.012Z,1.7
2022-09-01T04:19:55.699Z,1.4
2022-09-01T04:21:04.352Z,1.6
2022-09-01T04:22:14.016Z,2
2022-09-01T04:23:22.685Z,1.7
2022-09-01T04:24:31.385Z,2.2
2022-09-01T04:25:41.076Z,2.1
2022-09-01T04:26:49.840Z,1.8
2022-09-01T04:27:59.411Z,1.9
2022-09-01T04:29:08.077Z,2.4
2022-09-01T04:30:15.745Z,2.1
2022-09-01T04:31:25.513Z,1.8
2022-09-01T04:32:33.129Z,2.3
2022-09-01T04:33:41.840Z,2.5
2022-09-01T04:34:51.507Z,4.3
2022-09-01T04:35:59.160Z,4.1
2022-09-01T04:37:08.980Z,2.9
2022-09-01T04:38:17.652Z,2.2
2022-09-01T04:39:26.321Z,1.7
2022-09-01T04:40:36.263Z,1.7
2022-09-01T04:41:45.064Z,2.2
2022-09-01T04:42:54.839Z,1.7
2022-09-01T04:44:04.498Z,1.7
2022-09-01T04:45:17.392Z,1.5
2022-09-01T04:46:24.784Z,2
2022-09-01T04:47:35.814Z,2
2022-09-01T04:48:42.130Z,1.9
2022-09-01T04:49:52.775Z,1.3
2022-09-01T04:51:02.438Z,1.9
2022-09-01T04:52:11.140Z,1.7
2022-09-01T04:53:20.833Z,1.9
2022-09-01T04:54:29.510Z,2
2022-09-01T04:55:39.181Z,2
2022-09-01T04:56:46.854Z,2.1
2022-09-01T04:57:56.537Z,3.3
2022-09-01T04:59:05.194Z,4.3
2022-09-01T05:00:13.878Z,3.8
2022-09-01T05:01:23.591Z,2.3
2022-09-01T05:02:32.264Z,2.8
2022-09-01T05:03:40.854Z,2.1
2022-09-01T05:04:50.521Z,1.7
2022-09-01T05:05:59.234Z,2
2022-09-01T05:07:08.918Z,2.1
2022-09-01T05:08:18.126Z,2.3
2022-09-01T05:09:28.259Z,2.2
2022-09-01T05:10:37.935Z,2
2022-09-01T05:11:45.611Z,2
2022-09-01T05:12:54.268Z,2.5
2022-09-01T05:14:03.930Z,2
2022-09-01T05:15:12.610Z,2
2022-09-01T05:16:24.955Z,2.2
2022-09-01T05:17:31.970Z,1.9
2022-09-01T05:18:39.628Z,2.6
2022-09-01T05:19:49.304Z,2
2022-09-01T05:20:56.957Z,2
2022-09-01T05:22:05.619Z,2.3
2022-09-01T05:23:15.313Z,1.9
2022-09-01T05:24:22.965Z,1.4
2022-09-01T05:25:32.653Z,2.1
2022-09-01T05:26:41.317Z,2.3
2022-09-01T05:27:48.982Z,1.7
2022-09-01T05:28:58.713Z,1.8
2022-09-01T05:30:07.396Z,1.9
2022-09-01T05:31:16.172Z,2
2022-09-01T05:32:25.817Z,2
2022-09-01T05:33:34.480Z,2.2
2022-09-01T05:34:44.185Z,2.3
2022-09-01T05:35:52.859Z,2.1
2022-09-01T05:37:01.534Z,1.9
2022-09-01T05:38:11.207Z,1.7
2022-09-01T05:39:19.871Z,1.9
2022-09-01T05:40:28.757Z,2
2022-09-01T05:41:38.350Z,2.1
2022-09-01T05:42:48.041Z,1.8
2022-09-01T05:44:00.476Z,2.2
2022-09-01T05:45:08.371Z,1.8
2022-09-01T05:46:17.136Z,1.8
2022-09-01T05:47:26.726Z,1.9
2022-09-01T05:48:36.387Z,2.1
2022-09-01T05:49:45.073Z,2.3
2022-09-01T05:50:54.779Z,2.1
2022-09-01T05:52:04.561Z,2.1
2022-09-01T05:53:14.203Z,2
2022-09-01T05:54:22.858Z,2.2
2022-09-01T05:55:31.515Z,1.8
2022-09-01T05:56:43.463Z,1.9
2022-09-01T05:57:49.831Z,3
2022-09-01T06:00:10.162Z,2.4
2022-09-01T06:01:17.823Z,2.6
2022-09-01T06:02:27.697Z,1.6
2022-09-01T06:03:38.281Z,1.9
2022-09-01T06:04:47.822Z,1.8
2022-09-01T06:05:57.495Z,2.1
2022-09-01T06:07:08.396Z,1.9
2022-09-01T06:08:16.854Z,1.6
2022-09-01T06:09:26.537Z,1.7
2022-09-01T06:10:34.199Z,1.4
2022-09-01T06:11:43.887Z,1.6
2022-09-01T06:12:54.463Z,1.2
2022-09-01T06:14:03.157Z,1.6
2022-09-01T06:15:12.888Z,1.4
2022-09-01T06:16:21.579Z,1.3
2022-09-01T06:17:30.214Z,1.4
2022-09-01T06:18:38.896Z,1.7
2022-09-01T06:19:48.562Z,1.5
2022-09-01T06:20:58.301Z,1.4
2022-09-01T06:22:06.957Z,1.7
2022-09-01T06:23:16.657Z,1.4
2022-09-01T06:24:26.298Z,1.3
2022-09-01T06:25:35.980Z,1.3
2022-09-01T06:26:44.783Z,1.8
2022-09-01T06:27:54.437Z,1.9
2022-09-01T06:29:04.130Z,1.7
2022-09-01T06:30:13.808Z,1.7
2022-09-01T06:31:22.508Z,1.4
2022-09-01T06:32:32.274Z,1.8
2022-09-01T06:33:40.956Z,2.2
2022-09-01T06:34:48.618Z,1.5
2022-09-01T06:35:57.283Z,1.4
2022-09-01T06:37:06.977Z,1.7
2022-09-01T06:38:15.651Z,1.9
2022-09-01T06:39:25.336Z,1.6
2022-09-01T06:40:34.060Z,1.7
2022-09-01T06:41:41.682Z,2
2022-09-01T06:42:51.346Z,1.5
2022-09-01T06:44:00.162Z,1.5
2022-09-01T06:45:08.826Z,1.6
2022-09-01T06:46:18.533Z,1.5
2022-09-01T06:47:26.167Z,1.4
2022-09-01T06:48:35.854Z,1.8
2022-09-01T06:49:44.550Z,1.9
2022-09-01T06:52:04.856Z,1.5
2022-09-01T06:54:25.153Z,2
2022-09-01T06:55:33.923Z,1.9
2022-09-01T06:56:44.857Z,1.3
2022-09-01T06:58:08.718Z,1.5
2022-09-01T06:59:02.935Z,1.4
2022-09-01T07:00:12.604Z,1.7
2022-09-01T07:01:20.355Z,1.7
2022-09-01T07:02:28.959Z,1.4
2022-09-01T07:03:39.609Z,1.4
2022-09-01T07:04:47.255Z,1.8
2022-09-01T07:06:04.134Z,1.5
2022-09-01T07:08:16.216Z,1.6
2022-09-01T07:09:38.713Z,1.5
2022-09-01T07:11:19.388Z,1.4
2022-09-01T07:13:12.410Z,1.4
2022-09-01T07:14:15.456Z,1.4
2022-09-01T07:16:32.247Z,1.3
2022-09-01T07:17:38.483Z,1.4
2022-09-01T07:18:58.243Z,1.2
2022-09-01T07:20:23.102Z,1.8
2022-09-01T07:21:38.692Z,1.3
2022-09-01T07:22:36.185Z,1.6
2022-09-01T07:23:46.177Z,1.4
2022-09-01T07:24:38.469Z,1.4
2022-09-01T07:26:00.918Z,1.6
2022-09-01T07:27:07.424Z,1.5
2022-09-01T07:28:08.439Z,1.5
2022-09-01T07:29:17.099Z,1.1
2022-09-01T07:30:25.908Z,1.1
2022-09-01T07:32:41.240Z,1.5
2022-09-01T07:32:47.106Z,0.9
2022-09-01T07:34:37.600Z,1.4
2022-09-01T07:35:07.459Z,1.4
2022-09-01T07:36:25.600Z,1.5
2022-09-01T07:39:50.089Z,1.5
2022-09-01T07:43:20.138Z,1.2
2022-09-01T07:44:29.637Z,1.2
2022-09-01T07:45:47.128Z,1.2
2022-09-01T07:47:18.801Z,1
2022-09-01T07:47:59.724Z,1
2022-09-01T07:51:38.276Z,0.9
2022-09-01T07:52:41.244Z,1.1
2022-09-01T07:53:50.928Z,1
2022-09-01T07:54:58.591Z,1.1
2022-09-01T07:56:08.263Z,1.2
2022-09-01T07:57:16.931Z,1.3
2022-09-01T07:58:24.589Z,1.2
2022-09-01T07:59:34.423Z,1.2
2022-09-01T08:00:43.099Z,0.9
2022-09-01T08:01:52.850Z,1.2
2022-09-01T08:03:02.491Z,1.4
2022-09-01T08:04:12.142Z,1
2022-09-01T08:05:21.851Z,0.9
2022-09-01T08:06:37.807Z,1
2022-09-01T08:07:56.126Z,0.9
2022-09-01T08:08:56.796Z,1.1
2022-09-01T08:10:02.488Z,0.7
2022-09-01T08:11:11.185Z,0.8
2022-09-01T08:12:28.778Z,0.9
2022-09-01T08:13:29.515Z,0.7
2022-09-01T08:14:39.163Z,1.1
2022-09-01T08:16:18.640Z,1
2022-09-01T08:16:58.597Z,1.1
2022-09-01T08:18:08.309Z,0.8
2022-09-01T08:19:17.881Z,0.8
2022-09-01T08:20:26.557Z,1
2022-09-01T08:21:36.271Z,0.7
2022-09-01T08:22:45.983Z,0.8
2022-09-01T08:23:55.653Z,0.6
2022-09-01T08:25:04.319Z,0.8
2022-09-01T08:26:12.998Z,0.9
2022-09-01T08:27:22.676Z,0.9
2022-09-01T08:28:31.555Z,0.9
2022-09-01T08:29:41.064Z,0.5
2022-09-01T08:30:52.002Z,0.6
2022-09-01T08:31:59.431Z,0.7
2022-09-01T08:33:10.606Z,0.4
2022-09-01T08:34:19.753Z,0.7
2022-09-01T08:35:29.427Z,0.5
2022-09-01T08:36:40.098Z,0.5
2022-09-01T08:37:47.780Z,0.8
2022-09-01T08:38:56.434Z,0.4
2022-09-01T08:40:06.183Z,0.7
2022-09-01T08:41:14.810Z,0.3
2022-09-01T08:42:24.482Z,0.7
2022-09-01T08:43:34.234Z,0.4
2022-09-01T08:44:42.875Z,0.5
2022-09-01T08:45:52.648Z,0.7
2022-09-01T08:47:01.291Z,0.5
2022-09-01T08:49:25.986Z,0.4
2022-09-01T08:50:30.374Z,0.5
2022-09-01T08:51:40.489Z,0.7
2022-09-01T08:52:48.777Z,0.8
2022-09-01T08:53:58.501Z,0.7
2022-09-01T08:55:07.163Z,0.6
2022-09-01T08:56:15.822Z,0.5
2022-09-01T08:57:25.528Z,0.5
2022-09-01T08:58:35.217Z,0.5
2022-09-01T08:59:43.898Z,0.6
2022-09-01T09:00:55.032Z,0.6
2022-09-01T09:02:02.279Z,1.2
2022-09-01T09:03:11.956Z,0.7
2022-09-01T09:04:21.595Z,0.8
2022-09-01T09:05:29.269Z,0.4
2022-09-01T09:06:39.029Z,0.4
2022-09-01T09:07:48.711Z,0.4
2022-09-01T09:08:57.411Z,0.7
2022-09-01T09:10:07.080Z,0.9
2022-09-01T09:11:15.747Z,0.6
2022-09-01T09:12:25.406Z,0.7
2022-09-01T09:13:35.112Z,0.6
2022-09-01T09:14:42.819Z,0.6
2022-09-01T09:15:52.638Z,0.7
2022-09-01T09:17:02.172Z,0.6
2022-09-01T09:18:20.389Z,0.6
2022-09-01T09:19:22.520Z,0.6
2022-09-01T09:20:30.235Z,0.6
2022-09-01T09:21:40.171Z,0.6
2022-09-01T09:22:49.580Z,0.5
2022-09-01T09:23:58.290Z,0.4
2022-09-01T09:25:08.291Z,0.7
2022-09-01T09:26:22.191Z,0.5
2022-09-01T09:27:27.315Z,0.7
2022-09-01T09:28:37.025Z,0.4
2022-09-01T09:29:46.672Z,0.8
2022-09-01T09:30:57.946Z,0.8
2022-09-01T09:32:22.384Z,0.5
2022-09-01T09:33:47.474Z,0.7
2022-09-01T09:34:28.339Z,0.6
2022-09-01T09:35:36.001Z,0.5
2022-09-01T09:36:45.062Z,0.5
2022-09-01T09:37:56.207Z,0.7
2022-09-01T09:39:05.058Z,0.5
2022-09-01T09:40:14.868Z,0.6
2022-09-01T09:41:27.664Z,1
2022-09-01T09:42:36.723Z,0.9
2022-09-01T09:43:47.489Z,0.6
2022-09-01T09:44:57.643Z,0.5
2022-09-01T09:46:23.084Z,0.7
2022-09-01T09:47:33.676Z,1
2022-09-01T09:48:26.309Z,1
2022-09-01T09:49:41.471Z,0.8
2022-09-01T09:50:46.653Z,0.8
2022-09-01T09:51:58.721Z,1
2022-09-01T09:53:06.003Z,0.5
2022-09-01T09:54:15.683Z,0.3
2022-09-01T09:55:24.475Z,0.9
2022-09-01T09:56:34.479Z,0.6
2022-09-01T09:57:44.830Z,0.6
2022-09-01T09:58:52.499Z,0.6
2022-09-01T10:00:02.207Z,0.5
2022-09-01T10:01:12.212Z,0.8
2022-09-01T10:02:20.850Z,1.1
2022-09-01T10:03:31.526Z,0.7
2022-09-01T10:04:40.202Z,1
2022-09-01T10:05:48.868Z,0.7
2022-09-01T10:06:58.578Z,0.7
2022-09-01T10:08:07.265Z,0.7
2022-09-01T10:09:15.988Z,0.8
2022-09-01T10:10:25.667Z,0.6
2022-09-01T10:11:35.471Z,0.6
2022-09-01T10:12:45.932Z,0.5
2022-09-01T10:13:55.699Z,0.8
2022-09-01T10:15:07.038Z,0.6
2022-09-01T10:16:16.083Z,0.5
2022-09-01T10:17:26.741Z,0.5
2022-09-01T10:18:35.579Z,0.8
2022-09-01T10:19:45.064Z,1.1
2022-09-01T10:20:53.730Z,0.4
2022-09-01T10:22:03.394Z,0.6
2022-09-01T10:23:15.139Z,1
2022-09-01T10:24:26.868Z,0.5
2022-09-01T10:25:34.392Z,0.6
2022-09-01T10:26:42.062Z,0.7
2022-09-01T10:27:51.136Z,0.7
2022-09-01T10:29:00.407Z,1.2
2022-09-01T10:30:13.983Z,0.9
2022-09-01T10:31:20.798Z,0.7
2022-09-01T10:32:37.175Z,0.8
2022-09-01T10:33:41.009Z,0.5
2022-09-01T10:34:50.720Z,0.5
2022-09-01T10:35:58.393Z,0.6
2022-09-01T10:37:10.486Z,0.8
2022-09-01T10:38:18.773Z,0.8
2022-09-01T10:39:30.945Z,0.4
2022-09-01T10:40:43.284Z,0.5
2022-09-01T10:41:53.196Z,0.4
2022-09-01T10:43:00.918Z,0.5
2022-09-01T10:44:11.059Z,0.6
2022-09-01T10:45:18.718Z,0.4
2022-09-01T10:46:38.722Z,0.5
2022-09-01T10:47:38.098Z,0.5
2022-09-01T10:48:52.092Z,0.5
2022-09-01T10:49:58.362Z,0.4
2022-09-01T10:51:08.063Z,0.7
2022-09-01T10:52:17.717Z,0.8
2022-09-01T10:53:26.819Z,0.5
2022-09-01T10:54:37.235Z,0.4
2022-09-01T10:55:46.736Z,0.5
2022-09-01T10:56:55.432Z,0.3
2022-09-01T10:58:09.473Z,0.6
2022-09-01T10:59:33.563Z,0.8
2022-09-01T11:01:10.218Z,0.6
2022-09-01T11:01:48.153Z,0.7
2022-09-01T11:02:47.957Z,0.6
2022-09-01T11:03:57.718Z,0.6
2022-09-01T11:05:08.605Z,0.8
2022-09-01T11:06:18.093Z,0.9
2022-09-01T11:07:50.173Z,0.6
2022-09-01T11:08:38.422Z,0.7
2022-09-01T11:09:47.099Z,0.7
2022-09-01T11:10:56.782Z,0.8
2022-09-01T11:12:05.468Z,0.8
2022-09-01T11:13:14.160Z,0.5
2022-09-01T11:14:23.830Z,0.5
2022-09-01T11:15:32.487Z,0.5
2022-09-01T11:16:46.897Z,0.8
2022-09-01T11:17:53.841Z,1.4
2022-09-01T11:19:01.504Z,1
2022-09-01T11:20:11.223Z,1.1
2022-09-01T11:21:20.904Z,0.7
2022-09-01T11:22:29.617Z,0.4
2022-09-01T11:23:41.190Z,0.6
2022-09-01T11:24:52.099Z,0.4
2022-09-01T11:27:09.295Z,0.4
2022-09-01T11:28:17.956Z,0.3
2022-09-01T11:29:27.684Z,0.5
2022-09-01T11:30:36.348Z,0.4
2022-09-01T11:31:44.048Z,0.2
2022-09-01T11:32:53.674Z,0.3
2022-09-01T11:34:01.359Z,0.5
2022-09-01T11:35:11.081Z,0.7
2022-09-01T11:36:20.797Z,0.2
2022-09-01T11:37:30.449Z,0.4
2022-09-01T11:38:40.170Z,0.5
2022-09-01T11:39:49.907Z,0.3
2022-09-01T11:40:57.646Z,0.3
2022-09-01T11:42:07.252Z,0.5
2022-09-01T11:43:16.918Z,0.4
2022-09-01T11:44:26.551Z,0.5
2022-09-01T11:45:36.250Z,0.5
2022-09-01T11:46:44.921Z,0.2
2022-09-01T11:47:54.591Z,0.4
2022-09-01T11:49:04.275Z,0.5
2022-09-01T11:50:12.933Z,0.4
2022-09-01T11:51:22.625Z,0.5
2022-09-01T11:52:30.294Z,0.6
2022-09-01T11:53:38.953Z,0.4
2022-09-01T11:54:48.623Z,0.3
2022-09-01T11:55:56.277Z,0.3
2022-09-01T11:57:06.010Z,0.5
2022-09-01T11:58:17.878Z,0.4
2022-09-01T11:59:23.410Z,0.4
2022-09-01T12:00:33.075Z,0.2
2022-09-01T12:01:41.748Z,0.4
2022-09-01T12:02:50.641Z,0.4
2022-09-01T12:04:00.235Z,0.3
2022-09-01T12:05:07.927Z,0.3
2022-09-01T12:06:17.620Z,0.5
2022-09-01T12:07:27.285Z,0.3
2022-09-01T12:08:35.198Z,0.2
2022-09-01T12:09:44.913Z,0.4
2022-09-01T12:10:54.604Z,0.2
2022-09-01T12:12:04.283Z,0.5
2022-09-01T12:13:13.969Z,0.3
2022-09-01T12:14:23.656Z,0.5
2022-09-01T12:15:32.329Z,0.4
2022-09-01T12:16:42.441Z,0.4
2022-09-01T12:17:50.719Z,0.3
2022-09-01T12:19:00.398Z,0.5
2022-09-01T12:20:10.089Z,0.3
2022-09-01T12:21:17.744Z,0.2
2022-09-01T12:22:27.488Z,0.4
2022-09-01T12:23:35.184Z,0.4
2022-09-01T12:24:43.853Z,0.5
2022-09-01T12:25:53.555Z,0.3
2022-09-01T12:27:02.240Z,0.3
2022-09-01T12:28:11.981Z,0.4
2022-09-01T12:29:19.638Z,0.2
2022-09-01T12:30:29.329Z,0.3
2022-09-01T12:31:39.076Z,0.6
2022-09-01T12:32:47.740Z,0.4
2022-09-01T12:33:57.439Z,0.4
2022-09-01T12:35:11.213Z,0.4
2022-09-01T12:36:15.824Z,0.4
2022-09-01T12:37:26.511Z,0.5
2022-09-01T12:38:35.203Z,0.4
2022-09-01T12:39:44.878Z,0.4
2022-09-01T12:40:54.567Z,0.2
2022-09-01T12:42:03.241Z,0.3
2022-09-01T12:43:11.963Z,0.4
2022-09-01T12:44:21.616Z,0.4
2022-09-01T12:45:31.331Z,0.3
2022-09-01T12:46:40.984Z,0.4
2022-09-01T12:47:50.205Z,0.3
2022-09-01T12:48:59.386Z,0.3
2022-09-01T12:50:07.080Z,0.2
2022-09-01T12:51:15.746Z,0.2
2022-09-01T12:52:25.431Z,0.3
2022-09-01T12:53:36.382Z,0.2
2022-09-01T12:54:43.794Z,0.2
2022-09-01T12:55:52.452Z,0.2
2022-09-01T12:57:01.126Z,0.1
2022-09-01T12:58:10.830Z,0.3
2022-09-01T12:59:23.342Z,0.2
2022-09-01T13:00:30.159Z,0.3
2022-09-01T13:01:39.967Z,0.2
2022-09-01T13:02:47.582Z,0.1
2022-09-01T13:03:56.185Z,0.4
2022-09-01T13:05:06.011Z,0.3
2022-09-01T13:06:16.916Z,0.2
2022-09-01T13:07:26.381Z,0.3
2022-09-01T13:08:35.065Z,0.4
2022-09-01T13:09:42.721Z,0.3
2022-09-01T13:10:52.399Z,0.3
2022-09-01T13:12:06.413Z,0.3
2022-09-01T13:13:12.965Z,0.3
2022-09-01T13:14:22.583Z,0.3
2022-09-01T13:15:30.262Z,0.3
2022-09-01T13:16:39.971Z,0.2
2022-09-01T13:17:49.596Z,0.3
2022-09-01T13:19:19.888Z,0.2
2022-09-01T13:20:09.927Z,0.2
2022-09-01T13:21:18.612Z,0.2
2022-09-01T13:22:27.282Z,0.3
2022-09-01T13:23:36.973Z,0.2
2022-09-01T13:24:46.645Z,0.3
2022-09-01T13:25:56.313Z,0.4
2022-09-01T13:27:21.724Z,0.3
2022-09-01T13:28:14.664Z,0.3
2022-09-01T13:29:24.341Z,0.4
2022-09-01T13:30:32.043Z,0.3
2022-09-01T13:32:16.359Z,0.4
2022-09-01T13:34:22.787Z,0.3
2022-09-01T13:35:12.782Z,0.2
2022-09-01T13:36:52.599Z,0.4
2022-09-01T13:37:31.110Z,0.3
2022-09-01T13:38:40.821Z,0.5
2022-09-01T13:39:49.493Z,0.3
2022-09-01T13:40:58.214Z,0.6
2022-09-01T13:42:07.864Z,0.3
2022-09-01T13:43:15.682Z,0.3
2022-09-01T13:44:25.884Z,0.2
2022-09-01T13:45:34.930Z,0.3
2022-09-01T13:47:00.841Z,0.3
2022-09-01T13:49:41.934Z,0.4
2022-09-01T13:50:20.017Z,0.4
2022-09-01T13:51:27.246Z,0.4
2022-09-01T13:52:34.914Z,0.4
2022-09-01T13:53:44.604Z,0.2
2022-09-01T13:54:53.260Z,0.2
2022-09-01T13:56:01.937Z,0.2
2022-09-01T13:57:11.618Z,0.3
2022-09-01T13:58:21.450Z,0.4
2022-09-01T13:59:30.987Z,0.3
2022-09-01T14:00:40.746Z,0.3
2022-09-01T14:01:48.321Z,0.5
2022-09-01T14:02:57.993Z,0.3
2022-09-01T14:04:07.843Z,0.2
2022-09-01T14:05:16.452Z,0.2
2022-09-01T14:06:26.136Z,0.3
2022-09-01T14:07:34.821Z,0.4
2022-09-01T14:08:43.496Z,0.2
2022-09-01T14:09:53.321Z,0.4
2022-09-01T14:11:01.008Z,0.4
2022-09-01T14:12:10.685Z,0.6
2022-09-01T14:13:19.354Z,0.3
2022-09-01T14:14:27.069Z,0.3
2022-09-01T14:15:36.795Z,0.2
2022-09-01T14:16:45.479Z,0.6
2022-09-01T14:17:55.135Z,0.4
2022-09-01T14:19:04.863Z,0.4
2022-09-01T14:20:12.531Z,0.3
2022-09-01T14:21:22.246Z,0.4
2022-09-01T14:22:35.249Z,0.3
2022-09-01T14:23:41.591Z,0.3
2022-09-01T14:24:51.285Z,0.2
2022-09-01T14:25:58.979Z,0.3
2022-09-01T14:27:07.694Z,0.4
2022-09-01T14:28:16.645Z,0.4
2022-09-01T14:29:25.006Z,0.4
2022-09-01T14:30:34.678Z,0.2
2022-09-01T14:31:44.370Z,0.4
2022-09-01T14:32:54.113Z,0.3
2022-09-01T14:34:03.799Z,0.2
2022-09-01T14:35:12.473Z,0.3
2022-09-01T14:36:21.147Z,0.4
2022-09-01T14:37:30.839Z,0.3
2022-09-01T14:38:38.530Z,0.3
2022-09-01T14:39:48.226Z,0.3
2022-09-01T14:40:56.933Z,0.1
2022-09-01T14:42:05.617Z,0.3
2022-09-01T14:43:15.264Z,0.3
2022-09-01T14:44:24.957Z,0.2
2022-09-01T14:45:33.668Z,0.2
2022-09-01T14:46:41.358Z,0.2
2022-09-01T14:47:49.992Z,0.3
2022-09-01T14:48:59.654Z,0.2
2022-09-01T14:51:17.993Z,0.1
2022-09-01T14:52:26.649Z,0.3
2022-09-01T14:53:34.310Z,0.3
2022-09-01T14:54:44.076Z,0.2
2022-09-01T14:55:55.607Z,0.2
2022-09-01T14:58:13.075Z,0.3
2022-09-01T14:59:20.781Z,0.3
2022-09-01T15:00:30.508Z,0.4
2022-09-01T15:01:40.275Z,0.2
2022-09-01T15:02:48.922Z,0.2
2022-09-01T15:03:58.625Z,0.4
2022-09-01T15:05:06.286Z,0.4
2022-09-01T15:06:15.935Z,0.3
2022-09-01T15:07:25.618Z,0.3
2022-09-01T15:08:34.291Z,0.2
2022-09-01T15:09:43.990Z,0.2
2022-09-01T15:10:52.652Z,0.3
2022-09-01T15:12:01.341Z,0.2
2022-09-01T15:13:11.071Z,0.3
2022-09-01T15:14:18.752Z,0.3
2022-09-01T15:15:28.465Z,0.2
2022-09-01T15:16:38.147Z,0.2
2022-09-01T15:17:47.785Z,0.2
2022-09-01T15:18:56.465Z,0.3
2022-09-01T15:20:05.164Z,0.3
2022-09-01T15:21:12.832Z,0.3
2022-09-01T15:22:22.529Z,0.2
2022-09-01T15:23:30.220Z,0.5
2022-09-01T15:24:37.939Z,0.3
2022-09-01T15:25:47.608Z,0.2
2022-09-01T15:26:56.272Z,0.2
2022-09-01T15:28:05.975Z,0.3
2022-09-01T15:29:14.646Z,0.2
2022-09-01T15:30:24.368Z,0.2
2022-09-01T15:31:34.096Z,0.2
2022-09-01T15:32:42.678Z,0.2
2022-09-01T15:33:51.364Z,0.1
2022-09-01T15:35:00.031Z,0.2
2022-09-01T15:36:08.739Z,0.2
2022-09-01T15:37:18.406Z,0.3
2022-09-01T15:38:30.389Z,0.2
2022-09-01T15:39:38.437Z,0.3
2022-09-01T15:40:50.222Z,0.2
2022-09-01T15:41:56.129Z,0.3
2022-09-01T15:43:04.869Z,0.2
2022-09-01T15:44:14.513Z,0.2
2022-09-01T15:45:23.233Z,0.4
2022-09-01T15:46:32.993Z,0.3
2022-09-01T15:47:45.573Z,0.2
2022-09-01T15:48:50.281Z,0.3
2022-09-01T15:49:59.946Z,0.4
2022-09-01T15:51:09.611Z,0.3
2022-09-01T15:52:18.307Z,0.5
2022-09-01T15:53:28.119Z,0.4
2022-09-01T15:54:36.791Z,0.3
2022-09-01T15:55:46.465Z,0.2
2022-09-01T15:56:56.141Z,0.3
2022-09-01T15:58:03.792Z,0.2
2022-09-01T15:59:13.479Z,0.3
2022-09-01T16:00:22.154Z,0.4
2022-09-01T16:01:30.970Z,0.3
2022-09-01T16:02:40.498Z,0.4
2022-09-01T16:03:49.232Z,0.4
2022-09-01T16:04:58.953Z,0.4
2022-09-01T16:06:08.634Z,0.4
2022-09-01T16:07:17.305Z,0.4
2022-09-01T16:08:27.003Z,0.3
2022-09-01T16:09:34.681Z,0.4
2022-09-01T16:10:43.403Z,0.3
2022-09-01T16:11:53.061Z,0.3
2022-09-01T16:13:02.751Z,0.2
2022-09-01T16:14:12.450Z,0.2
2022-09-01T16:15:21.136Z,0.2
2022-09-01T16:16:29.879Z,0.3
2022-09-01T16:17:39.536Z,0.3